Time;durP1;ratioP1;P1;durP2;ratioP2;P2;SDS_P1;SDS_P2;PMS_P1;PMS_P2;Temp;Humidity;BMP_temperature;BMP_pressure;BME280_temperature;BME280_humidity;BME280_pressure;Samples;Min_cycle;Max_cycle;Signal;HPM_P1;HPM_P2
2023/09/30 00:01:55;;;;;;;18.08;8.82;;;13.50;94.60;;;;;;5017641;28;20096;-75
2023/09/30 00:04:21;;;;;;;16.38;8.80;;;13.50;94.70;;;;;;5011843;28;20122;-73
2023/09/30 00:06:47;;;;;;;18.42;8.70;;;13.50;94.80;;;;;;5017020;28;20064;-73
2023/09/30 00:09:13;;;;;;;16.75;8.48;;;13.40;94.80;;;;;;5012316;28;20034;-74
2023/09/30 00:11:39;;;;;;;20.13;9.02;;;13.40;94.90;;;;;;5019076;28;20950;-74
2023/09/30 00:14:05;;;;;;;15.35;8.23;;;13.40;94.90;;;;;;5020288;28;20041;-74
2023/09/30 00:16:31;;;;;;;21.15;8.45;;;13.40;95.00;;;;;;5014629;28;20033;-74
2023/09/30 00:18:58;;;;;;;19.13;9.50;;;13.40;94.90;;;;;;5014897;28;20465;-74
2023/09/30 00:21:24;;;;;;;17.33;9.00;;;13.40;94.90;;;;;;5012023;28;20547;-76
2023/09/30 00:23:50;;;;;;;17.77;9.65;;;13.40;95.00;;;;;;5013401;28;20044;-73
2023/09/30 00:26:16;;;;;;;16.38;9.05;;;13.50;95.00;;;;;;5017918;28;20033;-75
2023/09/30 00:28:42;;;;;;;16.40;7.85;;;13.40;95.00;;;;;;5010690;28;20045;-74
2023/09/30 00:31:10;;;;;;;18.10;9.07;;;13.40;95.00;;;;;;5010388;28;20022;-74
2023/09/30 00:33:36;;;;;;;20.85;9.10;;;13.40;95.00;;;;;;5018659;28;20342;-74
2023/09/30 00:36:10;;;;;;;22.60;9.98;;;13.40;95.20;;;;;;5017871;28;20025;-74
2023/09/30 00:38:38;;;;;;;22.73;9.90;;;13.40;95.30;;;;;;5023958;28;20079;-75
2023/09/30 00:41:04;;;;;;;16.80;7.80;;;13.40;95.30;;;;;;5024605;28;20037;-75
2023/09/30 00:43:31;;;;;;;17.27;8.43;;;13.40;95.30;;;;;;5017939;28;20032;-77
2023/09/30 00:46:25;;;;;;;19.77;9.02;;;13.40;95.30;;;;;;5016651;28;20099;-75
2023/09/30 00:48:52;;;;;;;17.65;9.90;;;13.30;95.30;;;;;;5016151;28;20448;-74
2023/09/30 00:51:18;;;;;;;25.33;10.68;;;13.30;95.40;;;;;;5020529;28;20025;-75
2023/09/30 00:53:44;;;;;;;17.83;9.32;;;13.30;95.40;;;;;;5014379;28;20065;-76
2023/09/30 00:56:11;;;;;;;15.80;8.55;;;13.40;95.50;;;;;;5014806;28;20376;-76
2023/09/30 00:58:38;;;;;;;18.45;9.23;;;13.40;95.50;;;;;;5013509;28;20053;-75
2023/09/30 01:01:05;;;;;;;17.83;9.48;;;13.30;95.50;;;;;;5014434;28;20034;-75
2023/09/30 01:03:31;;;;;;;17.90;9.20;;;13.40;95.50;;;;;;5009352;28;20040;-76
2023/09/30 01:05:57;;;;;;;17.25;9.57;;;13.30;95.50;;;;;;5013579;28;20026;-76
2023/09/30 01:08:23;;;;;;;18.45;10.13;;;13.20;95.50;;;;;;5013756;28;21402;-75
2023/09/30 01:10:49;;;;;;;17.25;9.50;;;13.20;95.60;;;;;;5009633;28;20570;-75
2023/09/30 01:13:15;;;;;;;15.43;9.63;;;13.20;95.60;;;;;;5011270;28;20514;-76
2023/09/30 01:15:40;;;;;;;20.35;10.05;;;13.20;95.60;;;;;;5016556;28;20058;-75
2023/09/30 01:18:06;;;;;;;16.30;9.48;;;13.30;95.60;;;;;;5015375;28;20443;-74
2023/09/30 01:20:32;;;;;;;15.32;9.02;;;13.30;95.60;;;;;;5016063;28;20026;-74
2023/09/30 01:22:58;;;;;;;18.63;9.73;;;13.20;95.50;;;;;;5016769;28;20313;-74
2023/09/30 01:25:24;;;;;;;18.73;10.57;;;13.20;95.60;;;;;;5023661;28;20079;-74
2023/09/30 01:27:54;;;;;;;17.33;10.45;;;13.20;95.60;;;;;;5018354;28;20101;-74
2023/09/30 01:30:22;;;;;;;25.45;11.18;;;13.20;95.60;;;;;;5021010;28;20351;-75
2023/09/30 01:32:48;;;;;;;16.45;8.77;;;13.20;95.60;;;;;;5017476;28;20028;-75
2023/09/30 01:35:15;;;;;;;19.17;9.93;;;13.20;95.70;;;;;;5021909;28;20029;-74
2023/09/30 01:37:41;;;;;;;17.60;9.88;;;13.10;95.70;;;;;;5018075;28;20026;-75
2023/09/30 01:40:08;;;;;;;22.05;10.35;;;13.10;95.70;;;;;;5023122;28;20302;-74
2023/09/30 01:42:34;;;;;;;20.13;9.77;;;13.10;95.80;;;;;;5020603;28;20164;-76
2023/09/30 01:44:59;;;;;;;20.80;9.82;;;13.10;95.80;;;;;;5018346;28;20033;-75
2023/09/30 01:47:25;;;;;;;17.00;9.88;;;13.10;95.80;;;;;;5015664;28;20038;-74
2023/09/30 01:49:51;;;;;;;18.13;10.15;;;13.10;95.80;;;;;;5021769;28;20056;-74
2023/09/30 01:52:17;;;;;;;21.90;10.57;;;13.10;95.90;;;;;;5020135;28;20030;-74
2023/09/30 01:54:42;;;;;;;18.40;9.73;;;13.10;95.90;;;;;;5022890;28;20785;-74
2023/09/30 01:57:08;;;;;;;17.33;9.98;;;13.10;95.90;;;;;;5019137;28;20574;-76
2023/09/30 01:59:34;;;;;;;16.95;9.68;;;13.10;95.90;;;;;;5016008;28;20048;-76
2023/09/30 02:02:00;;;;;;;24.63;11.48;;;13.10;95.90;;;;;;5017077;28;20056;-76
2023/09/30 02:04:25;;;;;;;18.48;10.88;;;13.10;96.00;;;;;;5015633;28;20105;-76
2023/09/30 02:06:51;;;;;;;20.92;10.57;;;13.10;95.90;;;;;;5019901;28;20025;-74
2023/09/30 02:09:17;;;;;;;27.08;11.15;;;13.10;95.90;;;;;;5016123;28;20035;-76
2023/09/30 02:11:43;;;;;;;19.42;10.75;;;13.00;95.90;;;;;;5020251;28;20060;-74
2023/09/30 02:14:11;;;;;;;17.65;9.75;;;13.00;96.00;;;;;;5020351;28;20065;-75
2023/09/30 02:16:38;;;;;;;21.10;10.90;;;13.00;95.90;;;;;;5016137;28;20029;-75
2023/09/30 02:19:03;;;;;;;19.55;9.63;;;13.00;95.80;;;;;;5022638;28;20161;-77
2023/09/30 02:21:29;;;;;;;19.90;9.63;;;13.00;95.80;;;;;;5014431;28;20567;-75
2023/09/30 02:23:55;;;;;;;19.33;10.45;;;12.90;95.90;;;;;;5021090;28;20121;-76
2023/09/30 02:26:21;;;;;;;20.10;10.70;;;12.90;95.90;;;;;;5017663;28;20030;-75
2023/09/30 02:28:47;;;;;;;22.27;10.50;;;12.90;95.90;;;;;;5023192;28;20095;-75
2023/09/30 02:31:13;;;;;;;17.67;10.88;;;12.90;95.80;;;;;;5019130;28;20025;-77
2023/09/30 02:33:39;;;;;;;15.63;10.20;;;12.90;95.90;;;;;;5018841;28;20045;-75
2023/09/30 02:36:08;;;;;;;19.10;11.23;;;12.90;95.90;;;;;;5019161;28;20064;-75
2023/09/30 02:38:37;;;;;;;22.27;11.70;;;12.90;95.90;;;;;;5014955;28;20081;-75
2023/09/30 02:41:04;;;;;;;20.52;11.57;;;13.00;95.80;;;;;;5014863;28;20506;-75
2023/09/30 02:43:29;;;;;;;17.88;10.00;;;12.90;95.80;;;;;;5014915;28;20037;-75
2023/09/30 02:45:55;;;;;;;19.55;10.38;;;12.90;95.90;;;;;;5021686;28;20068;-77
2023/09/30 02:48:21;;;;;;;22.55;12.25;;;12.90;95.90;;;;;;5008729;28;20544;-75
2023/09/30 02:50:47;;;;;;;19.00;10.77;;;13.00;95.90;;;;;;5022588;28;20033;-74
2023/09/30 02:53:13;;;;;;;19.80;10.57;;;13.00;96.00;;;;;;5017548;28;20490;-74
2023/09/30 02:55:39;;;;;;;18.67;11.25;;;13.00;95.90;;;;;;5022130;28;20038;-75
2023/09/30 02:58:05;;;;;;;19.63;11.68;;;13.00;95.90;;;;;;5014376;28;20045;-77
2023/09/30 03:00:32;;;;;;;21.70;11.25;;;13.00;95.90;;;;;;5018142;28;20120;-76
2023/09/30 03:03:01;;;;;;;18.13;10.70;;;13.00;95.90;;;;;;5017786;28;20047;-76
2023/09/30 03:05:27;;;;;;;22.77;11.70;;;12.90;95.90;;;;;;5019969;28;20168;-75
2023/09/30 03:07:54;;;;;;;24.23;11.55;;;12.90;96.00;;;;;;5020764;28;20295;-74
2023/09/30 03:10:23;;;;;;;23.65;12.77;;;12.90;95.90;;;;;;5010516;28;20038;-74
2023/09/30 03:12:50;;;;;;;24.63;11.60;;;12.80;96.00;;;;;;5018465;28;20021;-75
2023/09/30 03:15:16;;;;;;;24.02;12.63;;;12.90;96.00;;;;;;5014697;28;20026;-75
2023/09/30 03:17:42;;;;;;;23.88;12.20;;;12.80;96.10;;;;;;5014595;28;20037;-75
2023/09/30 03:20:14;;;;;;;22.33;12.35;;;12.80;96.10;;;;;;5013456;28;20038;-74
2023/09/30 03:22:42;;;;;;;25.27;12.10;;;12.70;96.20;;;;;;5017063;28;20021;-76
2023/09/30 03:25:09;;;;;;;22.95;12.48;;;12.70;96.20;;;;;;5014045;28;20041;-75
2023/09/30 03:27:35;;;;;;;22.63;13.18;;;12.70;96.20;;;;;;5016077;28;20586;-74
2023/09/30 03:30:05;;;;;;;19.85;11.60;;;12.70;96.30;;;;;;5013002;28;20096;-74
2023/09/30 03:32:33;;;;;;;22.35;12.55;;;12.70;96.30;;;;;;5017375;28;21750;-74
2023/09/30 03:35:00;;;;;;;24.10;11.95;;;12.70;96.30;;;;;;5018912;28;20477;-74
2023/09/30 03:37:27;;;;;;;32.45;13.02;;;12.60;96.30;;;;;;5014226;28;20029;-78
2023/09/30 03:39:56;;;;;;;23.88;12.07;;;12.60;96.40;;;;;;5016731;28;20029;-75
2023/09/30 03:42:21;;;;;;;19.95;11.70;;;12.60;96.40;;;;;;5021272;28;20160;-74
2023/09/30 03:44:48;;;;;;;23.33;11.50;;;12.60;96.40;;;;;;5018798;28;20503;-76
2023/09/30 03:47:18;;;;;;;25.65;12.52;;;12.60;96.40;;;;;;5016821;28;20028;-74
2023/09/30 03:49:44;;;;;;;25.02;12.23;;;12.60;96.50;;;;;;5016631;28;20025;-74
2023/09/30 03:52:10;;;;;;;23.02;12.88;;;12.60;96.50;;;;;;5015796;28;20036;-76
2023/09/30 03:54:37;;;;;;;24.60;11.98;;;12.60;96.60;;;;;;5015997;28;20116;-74
2023/09/30 03:57:03;;;;;;;26.55;13.05;;;12.50;96.50;;;;;;5009179;28;20415;-75
2023/09/30 03:59:30;;;;;;;28.67;14.15;;;12.50;96.50;;;;;;5014703;28;20036;-75
2023/09/30 04:01:57;;;;;;;23.10;13.95;;;12.50;96.60;;;;;;5019910;28;20017;-75
2023/09/30 04:04:23;;;;;;;25.52;13.40;;;12.50;96.60;;;;;;5011621;28;20025;-74
2023/09/30 04:06:51;;;;;;;26.08;13.73;;;12.40;96.60;;;;;;5017763;28;20041;-74
2023/09/30 04:09:17;;;;;;;23.95;12.63;;;12.40;96.60;;;;;;5019511;28;20064;-74
2023/09/30 04:11:43;;;;;;;26.52;13.02;;;12.40;96.70;;;;;;5015587;28;20029;-74
2023/09/30 04:14:09;;;;;;;29.30;13.68;;;12.40;96.60;;;;;;5006181;28;20030;-74
2023/09/30 04:16:37;;;;;;;23.70;12.45;;;12.40;96.70;;;;;;5016046;28;20483;-74
2023/09/30 04:19:03;;;;;;;24.10;13.10;;;12.40;96.70;;;;;;5014091;28;20341;-75
2023/09/30 04:21:33;;;;;;;23.77;12.00;;;12.30;96.70;;;;;;5015992;28;20049;-75
2023/09/30 04:23:59;;;;;;;30.48;14.38;;;12.30;96.70;;;;;;5018890;28;20069;-74
2023/09/30 04:26:25;;;;;;;26.65;13.93;;;12.30;96.70;;;;;;5020299;28;20132;-76
2023/09/30 04:28:51;;;;;;;27.70;14.23;;;12.20;96.70;;;;;;5009971;28;20041;-74
2023/09/30 04:31:18;;;;;;;26.88;12.70;;;12.20;96.80;;;;;;5016447;28;20038;-75
2023/09/30 04:33:44;;;;;;;26.23;13.23;;;12.20;96.70;;;;;;5015516;28;20667;-76
2023/09/30 04:36:10;;;;;;;29.40;13.60;;;12.20;96.80;;;;;;5011939;28;20032;-75
2023/09/30 04:38:37;;;;;;;24.77;13.52;;;12.20;96.70;;;;;;5017111;28;20507;-75
2023/09/30 04:41:03;;;;;;;28.38;12.82;;;12.10;96.80;;;;;;5018535;28;20073;-75
2023/09/30 04:43:29;;;;;;;25.30;13.30;;;12.10;96.90;;;;;;5015124;28;20046;-74
2023/09/30 04:45:56;;;;;;;28.95;13.95;;;12.10;96.80;;;;;;5017190;28;20032;-74
2023/09/30 04:48:23;;;;;;;27.58;14.10;;;12.10;96.90;;;;;;5014985;28;20041;-75
2023/09/30 04:50:49;;;;;;;27.33;12.35;;;12.10;96.90;;;;;;5018537;28;20381;-74
2023/09/30 04:53:17;;;;;;;27.75;13.73;;;12.10;96.90;;;;;;5020884;28;20037;-74
2023/09/30 04:55:43;;;;;;;24.15;13.20;;;12.10;96.90;;;;;;5017478;28;20060;-76
2023/09/30 04:58:09;;;;;;;23.88;13.10;;;12.10;96.90;;;;;;5020449;28;20388;-75
2023/09/30 05:00:35;;;;;;;28.05;13.18;;;12.10;97.00;;;;;;5016509;28;20669;-74
2023/09/30 05:03:00;;;;;;;30.50;13.50;;;12.10;96.90;;;;;;5021015;28;20029;-74
2023/09/30 05:05:26;;;;;;;23.40;12.77;;;12.00;96.90;;;;;;5023239;28;20033;-75
2023/09/30 05:07:52;;;;;;;24.33;12.55;;;12.00;97.00;;;;;;5019239;28;20032;-77
2023/09/30 05:10:19;;;;;;;22.95;13.88;;;12.00;97.10;;;;;;5017765;28;20334;-75
2023/09/30 05:12:45;;;;;;;23.52;12.57;;;12.00;97.10;;;;;;5017673;28;20363;-76
2023/09/30 05:15:13;;;;;;;24.25;13.40;;;12.00;97.10;;;;;;5018642;28;20052;-77
2023/09/30 05:17:39;;;;;;;29.33;12.45;;;12.00;97.10;;;;;;5015774;28;20030;-76
2023/09/30 05:20:06;;;;;;;27.40;13.13;;;11.90;97.10;;;;;;5020478;28;20079;-76
2023/09/30 05:22:33;;;;;;;27.35;14.60;;;11.90;97.10;;;;;;5018365;28;20033;-75
2023/09/30 05:25:00;;;;;;;25.40;13.52;;;11.90;97.10;;;;;;5016139;28;20033;-76
2023/09/30 05:27:27;;;;;;;29.35;12.70;;;11.90;97.10;;;;;;5018717;28;20025;-77
2023/09/30 05:29:52;;;;;;;23.98;11.73;;;11.80;97.10;;;;;;5022142;28;20036;-76
2023/09/30 05:32:18;;;;;;;23.63;12.25;;;11.90;97.20;;;;;;5018842;28;20030;-75
2023/09/30 05:34:44;;;;;;;31.48;12.40;;;11.90;97.20;;;;;;5019475;28;20374;-74
2023/09/30 05:37:10;;;;;;;24.23;11.38;;;11.90;97.20;;;;;;5018032;28;20036;-76
2023/09/30 05:39:35;;;;;;;31.77;11.82;;;11.90;97.20;;;;;;5038580;28;20064;-76
2023/09/30 05:42:01;;;;;;;30.90;13.15;;;11.90;97.20;;;;;;5032545;28;20030;-78
2023/09/30 05:44:27;;;;;;;23.85;11.75;;;11.80;97.20;;;;;;5031170;28;20053;-74
2023/09/30 05:46:53;;;;;;;25.70;10.77;;;11.80;97.20;;;;;;5019194;28;20112;-75
2023/09/30 05:49:19;;;;;;;26.13;11.60;;;11.80;97.20;;;;;;5017038;28;20036;-76
2023/09/30 05:51:46;;;;;;;35.15;12.75;;;11.80;97.20;;;;;;5015941;28;20326;-74
2023/09/30 05:54:12;;;;;;;26.42;10.93;;;11.80;97.30;;;;;;5015018;28;20053;-78
2023/09/30 05:56:38;;;;;;;22.75;10.68;;;11.80;97.30;;;;;;5019972;28;20073;-76
2023/09/30 05:59:07;;;;;;;31.50;13.45;;;11.80;97.30;;;;;;5022022;28;20053;-75
2023/09/30 06:01:33;;;;;;;24.48;11.18;;;11.70;97.30;;;;;;5019805;28;20491;-74
2023/09/30 06:04:00;;;;;;;26.23;10.85;;;11.80;97.40;;;;;;5019302;28;20053;-75
2023/09/30 06:06:28;;;;;;;23.23;10.93;;;11.80;97.30;;;;;;5020090;28;20326;-75
2023/09/30 06:08:54;;;;;;;24.50;10.45;;;11.90;97.30;;;;;;5016189;28;20466;-74
2023/09/30 06:11:24;;;;;;;22.48;11.00;;;11.90;97.30;;;;;;5021322;28;20160;-78
2023/09/30 06:13:51;;;;;;;26.05;10.93;;;11.90;97.30;;;;;;5019138;28;20478;-74
2023/09/30 06:16:17;;;;;;;24.92;10.57;;;11.90;97.30;;;;;;5015833;28;20037;-74
2023/09/30 06:18:45;;;;;;;20.27;9.88;;;11.90;97.20;;;;;;5021554;28;20399;-73
2023/09/30 06:21:11;;;;;;;19.80;10.02;;;11.90;97.20;;;;;;5021150;28;20041;-71
2023/09/30 06:23:36;;;;;;;21.60;10.38;;;12.00;97.30;;;;;;5009610;28;20099;-71
2023/09/30 06:26:02;;;;;;;22.40;9.90;;;12.10;97.10;;;;;;5016500;28;20033;-72
2023/09/30 06:28:31;;;;;;;24.25;10.48;;;12.10;97.10;;;;;;5010691;28;21219;-74
2023/09/30 06:30:57;;;;;;;23.48;10.15;;;12.20;96.80;;;;;;5017538;28;20296;-72
2023/09/30 06:33:23;;;;;;;20.27;9.40;;;12.40;96.80;;;;;;5020664;28;20045;-73
2023/09/30 06:35:52;;;;;;;18.77;10.05;;;12.40;96.60;;;;;;5019446;28;20029;-72
2023/09/30 06:38:20;;;;;;;22.45;10.27;;;12.40;96.30;;;;;;5016883;28;20040;-73
2023/09/30 06:40:47;;;;;;;20.80;9.52;;;12.40;96.10;;;;;;5017783;28;20037;-73
2023/09/30 06:43:15;;;;;;;28.45;9.57;;;12.50;96.20;;;;;;5016247;28;20383;-74
2023/09/30 06:45:46;;;;;;;20.95;9.45;;;12.40;96.00;;;;;;5020438;28;20053;-74
2023/09/30 06:48:12;;;;;;;28.17;10.85;;;12.40;96.10;;;;;;5019217;28;20033;-74
2023/09/30 06:50:48;;;;;;;23.80;9.27;;;12.50;96.10;;;;;;5017379;28;20383;-74
2023/09/30 06:53:24;;;;;;;21.58;9.93;;;12.50;96.10;;;;;;5014448;28;20468;-73
2023/09/30 06:55:51;;;;;;;21.27;9.82;;;12.60;96.10;;;;;;5015709;28;20069;-73
2023/09/30 06:58:20;;;;;;;21.58;9.18;;;12.60;96.00;;;;;;5015112;28;20034;-74
2023/09/30 07:00:50;;;;;;;26.05;9.88;;;12.60;95.90;;;;;;5022620;28;20492;-74
2023/09/30 07:03:16;;;;;;;23.33;9.18;;;12.70;95.70;;;;;;5018678;28;20550;-73
2023/09/30 07:05:42;;;;;;;30.77;9.52;;;12.80;95.70;;;;;;5017641;28;20029;-74
2023/09/30 07:08:11;;;;;;;24.33;9.38;;;12.80;95.70;;;;;;5016593;28;20049;-74
2023/09/30 07:10:37;;;;;;;23.13;8.85;;;12.90;95.50;;;;;;5022723;28;20021;-75
2023/09/30 07:13:03;;;;;;;21.58;7.95;;;12.90;95.50;;;;;;5015636;28;20029;-74
2023/09/30 07:15:29;;;;;;;20.67;9.27;;;12.90;95.50;;;;;;5013911;28;20113;-73
2023/09/30 07:17:56;;;;;;;21.70;8.20;;;13.00;95.50;;;;;;5020223;28;20112;-73
2023/09/30 07:20:22;;;;;;;19.67;8.27;;;13.10;95.50;;;;;;5013222;28;20042;-74
2023/09/30 07:22:48;;;;;;;20.02;8.32;;;13.10;95.40;;;;;;5014126;28;20503;-74
2023/09/30 07:25:16;;;;;;;25.98;9.65;;;13.20;95.30;;;;;;5017347;28;20025;-74
2023/09/30 07:27:43;;;;;;;24.30;8.95;;;13.20;95.20;;;;;;5013557;28;20068;-76
2023/09/30 07:30:10;;;;;;;24.08;9.05;;;13.30;95.30;;;;;;5017872;28;20021;-74
2023/09/30 07:32:36;;;;;;;19.02;8.57;;;13.40;95.30;;;;;;5018784;28;20046;-72
2023/09/30 07:35:03;;;;;;;18.52;7.82;;;13.40;95.10;;;;;;5012709;28;20079;-74
2023/09/30 07:37:28;;;;;;;23.80;8.93;;;13.60;95.30;;;;;;5016351;28;20025;-73
2023/09/30 07:39:54;;;;;;;27.40;9.60;;;13.60;95.00;;;;;;5012505;28;20049;-71
2023/09/30 07:42:22;;;;;;;23.75;8.20;;;13.70;94.90;;;;;;5014557;28;20404;-77
2023/09/30 07:44:48;;;;;;;20.77;8.77;;;13.80;94.90;;;;;;5018188;28;20048;-72
2023/09/30 07:47:14;;;;;;;24.98;8.70;;;14.10;95.00;;;;;;5018586;28;20039;-74
2023/09/30 07:49:40;;;;;;;21.38;8.73;;;14.20;94.70;;;;;;5010011;28;20042;-74
2023/09/30 07:52:06;;;;;;;25.67;8.35;;;14.40;94.30;;;;;;5018396;28;20079;-71
2023/09/30 07:54:32;;;;;;;16.25;7.50;;;14.60;94.10;;;;;;5012895;28;20377;-74
2023/09/30 07:56:58;;;;;;;22.00;7.90;;;14.80;93.70;;;;;;5012217;28;20050;-73
2023/09/30 07:59:25;;;;;;;25.38;8.18;;;15.00;93.10;;;;;;5014468;28;20026;-74
2023/09/30 08:01:51;;;;;;;24.08;8.05;;;15.20;92.60;;;;;;5016593;28;20072;-74
2023/09/30 08:04:17;;;;;;;23.80;7.70;;;15.40;92.10;;;;;;5014115;28;20034;-74
2023/09/30 08:06:43;;;;;;;21.02;7.57;;;15.50;91.40;;;;;;5008091;28;20119;-72
2023/09/30 08:09:12;;;;;;;20.95;8.13;;;15.60;90.80;;;;;;5009356;28;20522;-72
2023/09/30 08:11:38;;;;;;;22.13;7.78;;;15.70;90.90;;;;;;5007950;28;20391;-72
2023/09/30 08:14:06;;;;;;;22.13;8.75;;;15.80;90.30;;;;;;5016253;28;20515;-72
2023/09/30 08:16:35;;;;;;;22.20;7.75;;;15.90;90.30;;;;;;5016189;28;20041;-74
2023/09/30 08:19:01;;;;;;;21.02;8.55;;;16.00;90.30;;;;;;5012901;28;20124;-73
2023/09/30 08:21:26;;;;;;;23.38;7.65;;;16.10;90.20;;;;;;5011957;28;20124;-74
2023/09/30 08:23:52;;;;;;;18.27;7.43;;;16.30;89.80;;;;;;5007953;28;20495;-75
2023/09/30 08:26:18;;;;;;;19.95;7.75;;;16.40;89.70;;;;;;5013408;28;20496;-72
2023/09/30 08:28:43;;;;;;;22.88;7.88;;;16.50;89.40;;;;;;5010006;28;20051;-71
2023/09/30 08:31:09;;;;;;;25.00;7.75;;;16.60;89.40;;;;;;5007227;28;20079;-72
2023/09/30 08:33:40;;;;;;;22.88;8.50;;;16.70;88.90;;;;;;5012668;28;20030;-72
2023/09/30 08:36:07;;;;;;;22.70;7.50;;;16.80;88.70;;;;;;5007910;28;20038;-71
2023/09/30 08:38:37;;;;;;;21.40;7.63;;;16.90;88.40;;;;;;5012564;28;20045;-72
2023/09/30 08:41:03;;;;;;;22.35;7.75;;;17.00;87.80;;;;;;5010474;28;20068;-70
2023/09/30 08:43:31;;;;;;;29.67;8.23;;;17.00;87.50;;;;;;5008952;28;20155;-71
2023/09/30 08:45:58;;;;;;;18.13;6.65;;;17.10;87.80;;;;;;5018141;28;20537;-73
2023/09/30 08:48:27;;;;;;;21.55;7.80;;;17.10;87.50;;;;;;5013638;28;20049;-72
2023/09/30 08:50:57;;;;;;;16.15;6.65;;;17.30;87.30;;;;;;5008067;28;20024;-70
2023/09/30 08:53:24;;;;;;;22.15;7.57;;;17.40;87.40;;;;;;5013964;28;20045;-72
2023/09/30 08:55:55;;;;;;;21.20;7.78;;;17.60;86.80;;;;;;5010649;28;20057;-72
2023/09/30 08:58:24;;;;;;;19.35;6.72;;;17.80;86.50;;;;;;5014616;28;20526;-71
2023/09/30 09:00:50;;;;;;;20.98;8.45;;;17.80;86.10;;;;;;5015154;28;20493;-71
2023/09/30 09:03:18;;;;;;;20.52;7.50;;;17.80;85.80;;;;;;5014109;28;20464;-75
2023/09/30 09:05:43;;;;;;;24.15;7.32;;;17.90;85.60;;;;;;5006952;28;20066;-72
2023/09/30 09:08:09;;;;;;;19.17;7.03;;;17.90;85.40;;;;;;5013090;28;20060;-70
2023/09/30 09:10:35;;;;;;;22.75;6.63;;;17.90;85.50;;;;;;5009567;28;20084;-70
2023/09/30 09:13:01;;;;;;;24.17;6.50;;;18.00;85.70;;;;;;5016649;28;20523;-70
2023/09/30 09:15:30;;;;;;;18.67;6.25;;;18.20;86.00;;;;;;5008501;28;20543;-72
2023/09/30 09:17:56;;;;;;;21.33;7.60;;;18.30;85.10;;;;;;5010568;28;20041;-71
2023/09/30 09:20:25;;;;;;;26.90;6.88;;;18.40;84.40;;;;;;5017132;28;20048;-74
2023/09/30 09:22:55;;;;;;;24.35;7.28;;;18.30;84.20;;;;;;5011233;28;20033;-71
2023/09/30 09:25:24;;;;;;;23.13;6.95;;;18.40;84.30;;;;;;5012599;28;20488;-74
2023/09/30 09:27:51;;;;;;;26.65;8.43;;;18.30;84.40;;;;;;5014727;28;20445;-71
2023/09/30 09:30:19;;;;;;;27.90;8.77;;;18.30;84.20;;;;;;5009805;28;20399;-71
2023/09/30 09:32:54;;;;;;;24.20;8.75;;;18.20;84.80;;;;;;5011929;28;20710;-73
2023/09/30 09:35:25;;;;;;;22.48;9.15;;;18.30;84.80;;;;;;5011319;28;20081;-72
2023/09/30 09:38:04;;;;;;;19.55;7.97;;;18.30;85.50;;;;;;5014437;28;20038;-72
2023/09/30 09:40:35;;;;;;;23.60;8.65;;;18.40;84.50;;;;;;5018632;28;20671;-73
2023/09/30 09:43:04;;;;;;;24.55;8.43;;;18.30;84.70;;;;;;5018303;28;20109;-71
2023/09/30 09:45:32;;;;;;;27.27;8.65;;;18.50;84.90;;;;;;5017991;28;20058;-71
2023/09/30 09:47:59;;;;;;;22.83;8.13;;;18.50;84.10;;;;;;5015573;28;20540;-72
2023/09/30 09:50:24;;;;;;;22.70;8.27;;;18.50;84.60;;;;;;5014958;28;20040;-71
2023/09/30 09:52:55;;;;;;;27.50;9.57;;;18.50;84.00;;;;;;5015688;28;20029;-73
2023/09/30 09:55:22;;;;;;;25.95;8.98;;;18.40;84.10;;;;;;5017240;28;20046;-72
2023/09/30 09:57:49;;;;;;;25.02;8.35;;;18.20;84.80;;;;;;5013954;28;20331;-73
2023/09/30 10:00:18;;;;;;;22.27;8.40;;;18.20;85.30;;;;;;5014243;28;20050;-72
2023/09/30 10:02:47;;;;;;;20.15;7.93;;;18.40;85.70;;;;;;5009789;28;20041;-73
2023/09/30 10:05:15;;;;;;;23.65;8.60;;;18.60;84.60;;;;;;5013106;28;20086;-72
2023/09/30 10:07:59;;;;;;;24.20;8.88;;;18.90;83.80;;;;;;5015795;28;20033;-72
2023/09/30 10:10:25;;;;;;;20.80;7.97;;;19.10;83.90;;;;;;5012250;28;20030;-73
2023/09/30 10:12:51;;;;;;;17.50;7.45;;;19.00;83.80;;;;;;5012893;28;20083;-72
2023/09/30 10:15:26;;;;;;;20.50;6.53;;;19.20;83.50;;;;;;5013079;28;20038;-72
2023/09/30 10:18:09;;;;;;;21.00;7.50;;;19.50;83.30;;;;;;5013305;28;20041;-72
2023/09/30 10:20:37;;;;;;;22.70;7.82;;;19.60;82.70;;;;;;5011097;28;20120;-73
2023/09/30 10:23:18;;;;;;;23.58;7.47;;;19.80;82.10;;;;;;5009902;28;20088;-73
2023/09/30 10:25:48;;;;;;;24.00;7.63;;;20.10;81.20;;;;;;5016620;28;20124;-73
2023/09/30 10:28:33;;;;;;;23.15;7.72;;;20.10;80.50;;;;;;5018591;28;20117;-72
2023/09/30 10:31:24;;;;;;;23.30;7.65;;;20.30;79.50;;;;;;5017549;28;20112;-74
2023/09/30 10:34:05;;;;;;;19.35;7.35;;;20.30;79.70;;;;;;5013309;28;20497;-71
2023/09/30 10:36:40;;;;;;;22.85;6.95;;;20.40;79.80;;;;;;5014849;28;20041;-74
2023/09/30 10:39:13;;;;;;;20.45;6.93;;;20.30;79.00;;;;;;5016062;28;20041;-71
2023/09/30 10:41:45;;;;;;;21.77;6.32;;;20.50;78.90;;;;;;5020831;28;20064;-73
2023/09/30 10:44:25;;;;;;;21.48;6.28;;;20.60;77.80;;;;;;5035414;28;20168;-73
2023/09/30 10:46:55;;;;;;;17.90;4.88;;;20.60;78.40;;;;;;5035324;28;20113;-74
2023/09/30 10:49:23;;;;;;;21.67;5.53;;;20.60;77.80;;;;;;5020986;28;20506;-73
2023/09/30 10:52:00;;;;;;;19.27;5.40;;;20.60;76.90;;;;;;5016294;28;20058;-71
2023/09/30 10:54:31;;;;;;;18.10;5.50;;;20.80;77.80;;;;;;5014360;28;20113;-71
2023/09/30 10:57:03;;;;;;;19.70;5.32;;;20.80;76.40;;;;;;5019779;28;20045;-74
2023/09/30 10:59:30;;;;;;;17.30;4.13;;;20.80;76.60;;;;;;5015920;28;20053;-70
2023/09/30 11:01:56;;;;;;;17.17;4.53;;;21.10;76.20;;;;;;5019826;28;20376;-71
2023/09/30 11:04:22;;;;;;;17.27;5.95;;;21.10;75.60;;;;;;5014955;28;20038;-71
2023/09/30 11:06:51;;;;;;;17.50;5.07;;;21.10;74.80;;;;;;5016318;28;20033;-73
2023/09/30 11:09:19;;;;;;;18.33;5.32;;;21.10;75.20;;;;;;5020597;28;20144;-72
2023/09/30 11:11:50;;;;;;;17.13;4.75;;;21.10;75.30;;;;;;5017784;28;20391;-72
2023/09/30 11:14:17;;;;;;;17.88;5.22;;;21.00;74.40;;;;;;5014747;28;20387;-74
2023/09/30 11:16:43;;;;;;;18.27;4.80;;;21.10;74.60;;;;;;5016406;28;20050;-72
2023/09/30 11:19:10;;;;;;;18.05;5.13;;;21.20;75.30;;;;;;5017331;28;20033;-72
2023/09/30 11:21:36;;;;;;;16.00;4.95;;;21.40;73.00;;;;;;5013109;28;20037;-73
2023/09/30 11:24:02;;;;;;;17.33;4.90;;;21.30;73.40;;;;;;5018506;28;20029;-72
2023/09/30 11:26:34;;;;;;;14.73;4.70;;;21.30;73.90;;;;;;5010217;28;20045;-72
2023/09/30 11:29:07;;;;;;;15.50;4.30;;;21.40;73.50;;;;;;5015205;28;20025;-71
2023/09/30 11:31:33;;;;;;;14.17;4.87;;;21.50;73.70;;;;;;5013826;28;21346;-72
2023/09/30 11:34:03;;;;;;;11.77;4.30;;;21.50;72.10;;;;;;5016755;28;20602;-72
2023/09/30 11:36:33;;;;;;;10.63;3.78;;;21.60;72.00;;;;;;5011074;28;20043;-74
2023/09/30 11:39:02;;;;;;;17.80;4.80;;;21.70;69.80;;;;;;5015219;28;20022;-72
2023/09/30 11:41:39;;;;;;;12.30;3.88;;;21.70;70.60;;;;;;5012705;28;20038;-70
2023/09/30 11:44:10;;;;;;;14.27;4.47;;;21.40;73.10;;;;;;5013991;28;20101;-72
2023/09/30 11:47:00;;;;;;;17.25;4.60;;;21.20;71.00;;;;;;5016884;28;20577;-71
2023/09/30 11:49:44;;;;;;;15.05;4.50;;;21.30;71.40;;;;;;5015472;28;20029;-74
2023/09/30 11:52:15;;;;;;;12.05;3.97;;;21.40;71.50;;;;;;5016073;28;20021;-72
2023/09/30 11:54:45;;;;;;;14.77;4.93;;;21.70;71.30;;;;;;5014556;28;20128;-73
2023/09/30 11:57:18;;;;;;;16.05;4.90;;;21.90;69.60;;;;;;5012790;28;20056;-72
2023/09/30 11:59:45;;;;;;;20.10;5.20;;;22.00;69.80;;;;;;5012163;28;20392;-73
2023/09/30 12:02:12;;;;;;;12.98;3.78;;;22.10;69.70;;;;;;5017742;28;20021;-73
2023/09/30 12:04:38;;;;;;;11.48;4.07;;;21.80;68.70;;;;;;5011052;28;20389;-74
2023/09/30 12:07:06;;;;;;;13.88;4.50;;;21.90;68.50;;;;;;5009948;28;20529;-73
2023/09/30 12:09:32;;;;;;;15.27;4.38;;;22.10;69.20;;;;;;5017374;28;20040;-73
2023/09/30 12:11:58;;;;;;;10.10;3.78;;;22.20;66.40;;;;;;5011975;28;20124;-73
2023/09/30 12:14:24;;;;;;;13.52;3.97;;;22.50;65.10;;;;;;5014380;28;20030;-72
2023/09/30 12:16:50;;;;;;;13.13;3.95;;;22.20;67.10;;;;;;5014363;28;20076;-72
2023/09/30 12:19:19;;;;;;;12.55;3.65;;;22.50;66.50;;;;;;5015106;28;20034;-72
2023/09/30 12:21:47;;;;;;;15.07;4.38;;;22.60;65.50;;;;;;5011444;28;20089;-71
2023/09/30 12:24:17;;;;;;;13.38;4.45;;;22.60;65.70;;;;;;5018865;28;20032;-71
2023/09/30 12:26:49;;;;;;;11.60;4.03;;;22.40;65.30;;;;;;5016602;28;20387;-73
2023/09/30 12:29:17;;;;;;;10.52;3.50;;;22.50;65.70;;;;;;5014817;28;20113;-72
2023/09/30 12:31:46;;;;;;;10.18;4.05;;;22.30;65.90;;;;;;5021438;28;20033;-71
2023/09/30 12:34:12;;;;;;;18.15;4.20;;;22.30;65.10;;;;;;5013126;28;20476;-71
2023/09/30 12:36:42;;;;;;;13.57;3.78;;;22.00;65.90;;;;;;5015884;28;20029;-71